Huvudsida
METAR-TAF:

METAR-TAF

Flygplatser :

Bangui M'Poko International Airport

Bangui, Centralafrikanska republiken

latitud: 04-24N, longitud: 018-31E, höjd: 365 m

Aktuellt väderrapport

Denna rapport gjordes för 55 minuter sedan, klockan 09:00 UTC
Vind 4 kt från väst/sydväst
Temperatur 25°C
Fuktighet 74%
Tryck 1013 hPa
Sikt 10 km eller mer
Få moln på en höjd av 1000 ft

METAR: FEFF 190900Z 25004KT 9999 FEW010 25/20 Q1013 NOSIG

Tid: 10:55 (09:55 UTC)

Väderprognos

Denna rapport gjordes för 4 timmar och 55 minuter sedan, klockan 05:00 UTC
Prognos gäller från 19 kl. 06 UTC till 20 kl. 12 UTC
Vind 6 kt från syd/sydost
Sikt: 8000 m
Brutna moln på en höjd av 1000 ft
Få moln på en höjd av 3300 ft, Cumulonimbus.
åska, lätt regn
Blir
från 19 kl. 10 UTC till 19 kl. 12 UTC
Sikt 10 km eller mer
Inga moln under 1 500 m eller inga cumulonimbus

TAF: FEFF 190500Z 1906/2012 16006KT 8000 -TSRA BKN010 FEW033CB BECMG 1910/1912 CAVOK

Aktuella väderrapporter och prognoser från 4000 flygplatser (METAR- och TAF-rapporter).

De tillgängliga stationerna syns som gula och röda prickar på kartan.

För musen över prickarna för att se namnen på stationerna.

Klicka sedan för att få väderrapporter och prognoser.

För att ändra kartan: Klicka på de gröna knapparna med ett svart kors på för att zooma in; den gröna knappen med ett streck på för att zooma ut; eller på de gröna pilarna för angränsande kartor.


METAR-TAF: